Time;durP1;ratioP1;P1;durP2;ratioP2;P2;SDS_P1;SDS_P2;PMS_P1;PMS_P2;Temp;Humidity;BMP_temperature;BMP_pressure;BME280_temperature;BME280_humidity;BME280_pressure;Samples;Min_cycle;Max_cycle;Signal;HPM_P1;HPM_P2
2023/08/10 00:01:41;559364.00;1.86;964.10;67665.00;0.23;117.73;;;;;20.10;1.00;;;;;;2276007;61;1225;-87
2023/08/10 00:04:08;329663.00;1.10;568.91;17057.00;0.06;30.17;;;;;20.10;1.00;;;;;;2275874;61;1930;-86
2023/08/10 00:06:35;314804.00;1.05;543.37;14171.00;0.05;25.17;;;;;20.40;1.00;;;;;;2275967;61;1852;-88
2023/08/10 00:09:03;289984.00;0.97;500.70;0.00;0.00;0.62;;;;;20.80;1.00;;;;;;2276004;61;1066;-88
2023/08/10 00:11:31;211821.00;0.71;366.27;0.00;0.00;0.62;;;;;21.00;1.00;;;;;;2275977;61;1623;-86
2023/08/10 00:13:58;394657.00;1.32;680.62;19407.00;0.06;34.24;;;;;21.10;1.00;;;;;;2276046;61;1435;-85
2023/08/10 00:16:25;348644.00;1.16;601.53;73.00;0.00;0.75;;;;;20.80;1.00;;;;;;2275958;61;1611;-88
2023/08/10 00:18:52;307718.00;1.03;531.19;22886.00;0.08;40.27;;;;;20.80;1.00;;;;;;2275985;61;1087;-86
2023/08/10 00:21:19;641022.00;2.14;1105.11;27008.00;0.09;47.40;;;;;21.00;1.00;;;;;;2275935;61;945;-86
2023/08/10 00:23:46;403975.00;1.35;696.64;0.00;0.00;0.62;;;;;21.30;1.00;;;;;;2275894;61;1919;-87
2023/08/10 00:26:13;335133.00;1.12;578.31;0.00;0.00;0.62;;;;;21.30;1.00;;;;;;2275778;61;1715;-88
2023/08/10 00:28:42;552182.00;1.84;951.72;0.00;0.00;0.62;;;;;20.60;1.00;;;;;;2275919;61;2210;-87
2023/08/10 00:31:09;433156.00;1.44;746.81;0.00;0.00;0.62;;;;;20.20;1.00;;;;;;2275984;61;913;-86
2023/08/10 00:33:37;132899.00;0.44;230.33;0.00;0.00;0.62;;;;;20.40;1.00;;;;;;2275896;61;1393;-87
2023/08/10 00:36:06;201363.00;0.67;348.27;0.00;0.00;0.62;;;;;20.60;1.00;;;;;;2275848;61;1176;-85
2023/08/10 00:38:33;281022.00;0.94;485.29;0.00;0.00;0.62;;;;;20.40;1.00;;;;;;2276205;61;928;-88
2023/08/10 00:41:00;312674.00;1.04;539.71;0.00;0.00;0.62;;;;;20.70;1.00;;;;;;2276447;61;1206;-88
2023/08/10 00:43:27;421744.00;1.41;727.19;0.00;0.00;0.62;;;;;20.90;1.00;;;;;;2276576;61;1988;-87
2023/08/10 00:45:56;460080.00;1.53;793.12;32980.00;0.11;57.74;;;;;21.00;1.00;;;;;;2276650;61;910;-87
2023/08/10 00:48:25;177646.00;0.59;307.44;0.00;0.00;0.62;;;;;21.30;1.00;;;;;;2276576;61;1593;-86
2023/08/10 00:50:53;57663.00;0.19;100.44;0.00;0.00;0.62;;;;;21.30;1.00;;;;;;2276606;61;1037;-87
2023/08/10 00:53:20;257737.00;0.86;445.26;0.00;0.00;0.62;;;;;21.40;1.00;;;;;;2276561;61;2230;-87
2023/08/10 00:55:51;232525.00;0.78;401.89;0.00;0.00;0.62;;;;;21.40;1.00;;;;;;2276519;61;1447;-87
2023/08/10 00:58:18;113446.00;0.38;196.78;0.00;0.00;0.62;;;;;21.00;1.00;;;;;;2276577;61;1154;-86
2023/08/10 01:00:46;105807.00;0.35;183.59;0.00;0.00;0.62;;;;;21.20;1.00;;;;;;2276575;61;1979;-86
2023/08/10 01:03:14;189664.00;0.63;328.13;0.00;0.00;0.62;;;;;21.30;1.00;;;;;;2276438;61;2002;-86
2023/08/10 01:05:51;176508.00;0.59;305.48;0.00;0.00;0.62;;;;;21.40;1.00;;;;;;2276533;61;1198;-86
2023/08/10 01:08:26;137958.00;0.46;239.05;0.00;0.00;0.62;;;;;21.60;1.00;;;;;;2276599;61;1077;-87
2023/08/10 01:11:05;146570.00;0.49;253.90;0.00;0.00;0.62;;;;;21.70;1.00;;;;;;2276487;61;1003;-88
2023/08/10 01:13:39;86034.00;0.29;149.46;0.00;0.00;0.62;;;;;21.80;1.00;;;;;;2276413;61;1779;-87
2023/08/10 01:16:10;70498.00;0.23;122.62;0.00;0.00;0.62;;;;;21.50;1.00;;;;;;2276131;61;1687;-90
2023/08/10 01:21:30;513367.00;1.71;884.84;0.00;0.00;0.62;;;;;21.00;1.00;;;;;;2308104;55;3618;-87
2023/08/10 01:26:47;860207.00;2.87;1486.34;0.00;0.00;0.62;;;;;21.30;1.00;;;;;;2281948;55;3773;-88
2023/08/10 01:29:15;66033.00;0.22;114.90;0.00;0.00;0.62;;;;;21.20;1.00;;;;;;2276403;61;2294;-87
2023/08/10 01:31:43;232807.00;0.78;402.38;15343.00;0.05;27.20;;;;;21.00;1.00;;;;;;2276316;61;1035;-88
2023/08/10 01:34:10;58457.00;0.19;101.81;0.00;0.00;0.62;;;;;21.00;1.00;;;;;;2276392;61;1370;-87
2023/08/10 01:36:38;45692.00;0.15;79.74;0.00;0.00;0.62;;;;;21.00;1.00;;;;;;2276430;61;906;-88
2023/08/10 01:39:09;172049.00;0.57;297.80;0.00;0.00;0.62;;;;;21.30;1.00;;;;;;2276520;61;1173;-87
2023/08/10 01:41:36;156352.00;0.52;270.75;0.00;0.00;0.62;;;;;21.20;1.00;;;;;;2276369;61;1153;-87
2023/08/10 01:44:04;0.00;0.00;0.62;0.00;0.00;0.62;;;;;21.30;1.00;;;;;;2276241;61;1910;-87
2023/08/10 01:46:37;136763.00;0.46;236.99;0.00;0.00;0.62;;;;;21.20;1.00;;;;;;2276199;61;1153;-87
2023/08/10 01:49:10;152049.00;0.51;263.34;0.00;0.00;0.62;;;;;21.20;1.00;;;;;;2276171;61;1096;-86
2023/08/10 01:51:40;172884.00;0.58;299.23;0.00;0.00;0.62;;;;;21.40;1.00;;;;;;2276181;61;1700;-89
2023/08/10 01:54:10;174947.00;0.58;302.79;0.00;0.00;0.62;;;;;21.20;1.00;;;;;;2276402;61;1403;-88
2023/08/10 01:56:37;0.00;0.00;0.62;0.00;0.00;0.62;;;;;21.30;1.00;;;;;;2276172;61;1008;-87
2023/08/10 01:59:07;99586.00;0.33;172.86;0.00;0.00;0.62;;;;;21.40;1.00;;;;;;2276172;61;1180;-89
2023/08/10 02:01:35;35563.00;0.12;62.21;0.00;0.00;0.62;;;;;21.20;1.00;;;;;;2276215;61;933;-88
2023/08/10 02:04:04;468978.00;1.56;808.43;22393.00;0.07;39.41;;;;;21.00;1.00;;;;;;2293626;40;3900;-87
2023/08/10 02:06:37;72624.00;0.24;126.29;0.00;0.00;0.62;;;;;20.70;1.00;;;;;;2272067;61;1063;-87
2023/08/10 02:11:39;127930.00;0.43;221.76;0.00;0.00;0.62;;;;;20.50;1.00;;;;;;2435566;40;2183;-87
2023/08/10 02:14:11;261128.00;0.87;451.09;16253.00;0.05;28.78;;;;;20.30;1.00;;;;;;2276376;61;1299;-85
2023/08/10 02:16:38;202170.00;0.67;349.66;0.00;0.00;0.62;;;;;20.30;1.00;;;;;;2276254;61;1740;-87
2023/08/10 02:19:08;0.00;0.00;0.62;0.00;0.00;0.62;;;;;20.50;1.00;;;;;;2276202;61;967;-85
2023/08/10 02:21:35;152271.00;0.51;263.72;0.00;0.00;0.62;;;;;20.60;1.00;;;;;;2276285;61;1681;-87
2023/08/10 02:24:04;95984.00;0.32;166.64;0.00;0.00;0.62;;;;;20.80;1.00;;;;;;2276283;61;2001;-86
2023/08/10 02:26:32;20894.00;0.07;36.82;0.00;0.00;0.62;;;;;20.90;1.00;;;;;;2276217;61;964;-86
2023/08/10 02:29:00;170881.00;0.57;295.78;0.00;0.00;0.62;;;;;21.20;1.00;;;;;;2276280;61;1157;-88
2023/08/10 02:31:29;150023.00;0.50;259.85;0.00;0.00;0.62;;;;;20.90;1.00;;;;;;2275842;61;935;-88
2023/08/10 02:33:56;207314.00;0.69;358.51;0.00;0.00;0.62;;;;;20.50;1.00;;;;;;2276200;61;1398;-88
2023/08/10 02:36:23;177685.00;0.59;307.50;0.00;0.00;0.62;;;;;20.40;1.00;;;;;;2276132;61;1110;-86
2023/08/10 02:38:51;198318.00;0.66;343.03;0.00;0.00;0.62;;;;;20.20;1.00;;;;;;2276224;61;1243;-88
2023/08/10 02:41:20;158416.00;0.53;274.31;0.00;0.00;0.62;;;;;19.80;1.00;;;;;;2276123;61;1742;-87
2023/08/10 02:43:47;173055.00;0.58;299.53;39586.00;0.13;69.17;;;;;19.70;1.00;;;;;;2276038;61;2018;-86
2023/08/10 02:46:14;86852.00;0.29;150.87;0.00;0.00;0.62;;;;;19.70;1.00;;;;;;2276166;61;1027;-86
2023/08/10 02:48:42;184418.00;0.61;319.10;0.00;0.00;0.62;;;;;19.60;1.00;;;;;;2276031;61;1596;-86
2023/08/10 02:51:09;162636.00;0.54;281.58;0.00;0.00;0.62;;;;;18.90;1.00;;;;;;2276045;61;928;-87
2023/08/10 02:53:35;91997.00;0.31;159.76;0.00;0.00;0.62;;;;;18.40;1.00;;;;;;2276099;61;1407;-87
2023/08/10 02:56:02;181304.00;0.60;313.74;0.00;0.00;0.62;;;;;17.90;1.00;;;;;;2276179;61;1071;-88
2023/08/10 02:58:30;96973.00;0.32;168.35;0.00;0.00;0.62;;;;;17.90;1.00;;;;;;2277734;55;3734;-86
2023/08/10 03:00:57;109264.00;0.36;189.56;0.00;0.00;0.62;;;;;18.10;1.00;;;;;;2276141;61;1111;-86
2023/08/10 03:03:25;413039.00;1.38;712.22;0.00;0.00;0.62;;;;;18.20;1.00;;;;;;2276237;61;1917;-89
2023/08/10 03:05:54;33738.00;0.11;59.05;0.00;0.00;0.62;;;;;18.80;1.00;;;;;;2276342;61;1136;-87
2023/08/10 03:08:21;103255.00;0.34;179.19;0.00;0.00;0.62;;;;;19.30;1.00;;;;;;2276395;61;1004;-88
2023/08/10 03:10:48;103377.00;0.34;179.40;0.00;0.00;0.62;;;;;19.70;1.00;;;;;;2278741;39;3710;-88
2023/08/10 03:13:15;152310.00;0.51;263.79;0.00;0.00;0.62;;;;;19.50;1.00;;;;;;2276468;61;1264;-85
2023/08/10 03:15:42;171754.00;0.57;297.29;0.00;0.00;0.62;;;;;19.30;1.00;;;;;;2276352;61;1115;-87
2023/08/10 03:18:09;157737.00;0.53;273.14;0.00;0.00;0.62;;;;;19.30;1.00;;;;;;2276359;61;1564;-89
2023/08/10 03:20:36;230253.00;0.77;397.98;63499.00;0.21;110.53;;;;;19.40;1.00;;;;;;2276315;61;2207;-87
2023/08/10 03:23:05;120601.00;0.40;209.12;0.00;0.00;0.62;;;;;19.40;1.00;;;;;;2276330;61;1695;-87
2023/08/10 03:25:32;20226.00;0.07;35.66;0.00;0.00;0.62;;;;;19.50;1.00;;;;;;2276403;61;1084;-87
2023/08/10 03:27:59;115811.00;0.39;200.86;0.00;0.00;0.62;;;;;19.70;1.00;;;;;;2276441;61;988;-87
2023/08/10 03:30:26;46352.00;0.15;80.88;0.00;0.00;0.62;;;;;19.90;1.00;;;;;;2276462;61;930;-88
2023/08/10 03:32:53;68124.00;0.23;118.52;0.00;0.00;0.62;;;;;20.30;1.00;;;;;;2276413;61;1737;-87
2023/08/10 03:35:20;108098.00;0.36;187.55;0.00;0.00;0.62;;;;;20.60;1.00;;;;;;2276432;61;1089;-86
2023/08/10 03:37:47;0.00;0.00;0.62;0.00;0.00;0.62;;;;;20.80;1.00;;;;;;2276424;61;1081;-87
2023/08/10 03:40:15;143418.00;0.48;248.46;0.00;0.00;0.62;;;;;20.90;1.00;;;;;;2276417;61;1036;-86
2023/08/10 03:42:42;66923.00;0.22;116.44;0.00;0.00;0.62;;;;;21.00;1.00;;;;;;2276329;61;1404;-85
2023/08/10 03:45:10;339668.00;1.13;586.10;49599.00;0.17;86.49;;;;;21.10;1.00;;;;;;2276288;61;2149;-86
2023/08/10 03:50:19;10923.00;0.04;19.55;0.00;0.00;0.62;;;;;21.20;1.00;;;;;;2294925;39;3655;-87
2023/08/10 03:52:46;47737.00;0.16;83.27;0.00;0.00;0.62;;;;;21.30;1.00;;;;;;2276284;61;1399;-88
2023/08/10 03:57:44;343444.00;1.14;592.59;0.00;0.00;0.62;;;;;21.00;1.00;;;;;;2278121;61;1649;-86
2023/08/10 04:00:13;138860.00;0.46;240.61;0.00;0.00;0.62;;;;;21.10;1.00;;;;;;2287711;56;3745;-85
2023/08/10 04:02:39;3985.00;0.01;7.53;0.00;0.00;0.62;;;;;21.20;1.00;;;;;;2337767;55;3758;-87
2023/08/10 04:05:07;145320.00;0.48;251.74;0.00;0.00;0.62;;;;;21.30;1.00;;;;;;2275773;61;1989;-87
2023/08/10 04:07:37;60143.00;0.20;104.72;0.00;0.00;0.62;;;;;21.30;1.00;;;;;;2276294;61;1092;-86
2023/08/10 04:10:05;25711.00;0.09;45.16;0.00;0.00;0.62;;;;;21.30;1.00;;;;;;2276335;61;1019;-87
2023/08/10 04:12:32;0.00;0.00;0.62;0.00;0.00;0.62;;;;;21.30;1.00;;;;;;2276732;61;1160;-87
2023/08/10 04:15:01;0.00;0.00;0.62;0.00;0.00;0.62;;;;;21.40;1.00;;;;;;2277017;61;1050;-86
2023/08/10 04:17:27;0.00;0.00;0.62;0.00;0.00;0.62;;;;;21.50;1.00;;;;;;2277085;61;902;-88
2023/08/10 04:19:56;88939.00;0.30;154.48;0.00;0.00;0.62;;;;;21.50;1.00;;;;;;2277019;61;1058;-88
2023/08/10 04:22:22;25683.00;0.09;45.11;0.00;0.00;0.62;;;;;21.30;1.00;;;;;;2276952;61;1088;-86
2023/08/10 04:24:50;400198.00;1.33;690.15;62695.00;0.21;109.14;;;;;21.20;1.00;;;;;;2276801;61;1996;-87
2023/08/10 04:27:17;0.00;0.00;0.62;0.00;0.00;0.62;;;;;21.20;1.00;;;;;;2276950;61;1136;-88
2023/08/10 04:29:45;40583.00;0.14;70.90;0.00;0.00;0.62;;;;;21.00;1.00;;;;;;2276942;61;1169;-86
2023/08/10 04:32:15;0.00;0.00;0.62;0.00;0.00;0.62;;;;;20.80;1.00;;;;;;2276819;61;1107;-86
2023/08/10 04:34:42;54844.00;0.18;95.56;0.00;0.00;0.62;;;;;20.70;1.00;;;;;;2276828;61;1408;-87
2023/08/10 04:37:09;0.00;0.00;0.62;0.00;0.00;0.62;;;;;20.80;1.00;;;;;;2276774;61;1101;-86
2023/08/10 04:39:36;0.00;0.00;0.62;0.00;0.00;0.62;;;;;20.80;1.00;;;;;;2276858;61;1112;-86
2023/08/10 04:42:03;2016.00;0.01;4.11;0.00;0.00;0.62;;;;;20.80;1.00;;;;;;2276833;61;1275;-88
2023/08/10 04:44:30;70245.00;0.23;122.18;0.00;0.00;0.62;;;;;20.60;1.00;;;;;;2276791;61;1997;-87
2023/08/10 04:46:57;290861.00;0.97;502.21;75109.00;0.25;130.59;;;;;20.40;1.00;;;;;;2276880;61;1018;-87
2023/08/10 04:49:27;156312.00;0.52;270.68;0.00;0.00;0.62;;;;;20.40;1.00;;;;;;2276770;61;1680;-87
2023/08/10 04:51:54;5784.00;0.02;10.64;0.00;0.00;0.62;;;;;20.20;1.00;;;;;;2276857;61;1165;-87
2023/08/10 04:54:22;70130.00;0.23;121.99;0.00;0.00;0.62;;;;;20.40;1.00;;;;;;2276793;61;1400;-88
2023/08/10 04:56:49;0.00;0.00;0.62;0.00;0.00;0.62;;;;;20.30;1.00;;;;;;2276827;61;1075;-87
2023/08/10 04:59:16;107789.00;0.36;187.01;0.00;0.00;0.62;;;;;20.40;1.00;;;;;;2276698;61;1084;-87
2023/08/10 05:01:43;48462.00;0.16;84.53;0.00;0.00;0.62;;;;;20.60;1.00;;;;;;2276789;61;1593;-86
2023/08/10 05:04:10;82992.00;0.28;144.21;0.00;0.00;0.62;;;;;20.50;1.00;;;;;;2276640;61;1920;-87
2023/08/10 05:06:38;147323.00;0.49;255.19;0.00;0.00;0.62;;;;;19.80;1.00;;;;;;2276784;61;1076;-86
2023/08/10 05:09:06;2512.00;0.01;4.97;0.00;0.00;0.62;;;;;19.60;1.00;;;;;;2276799;61;1103;-88
2023/08/10 05:11:32;16627.00;0.06;29.43;0.00;0.00;0.62;;;;;19.40;1.00;;;;;;2276772;61;1126;-86
2023/08/10 05:14:00;0.00;0.00;0.62;0.00;0.00;0.62;;;;;19.30;1.00;;;;;;2276631;61;1271;-87
2023/08/10 05:16:26;16905.00;0.06;29.91;0.00;0.00;0.62;;;;;19.30;1.00;;;;;;2276767;61;922;-87
2023/08/10 05:18:53;73100.00;0.24;127.12;0.00;0.00;0.62;;;;;19.40;1.00;;;;;;2276693;61;965;-87
2023/08/10 05:21:20;143973.00;0.48;249.42;0.00;0.00;0.62;;;;;19.10;1.00;;;;;;2276677;61;976;-86
2023/08/10 05:23:48;184817.00;0.62;319.78;0.00;0.00;0.62;;;;;19.40;1.00;;;;;;2276627;61;2005;-86
2023/08/10 05:26:15;20625.00;0.07;36.35;0.00;0.00;0.62;;;;;19.50;1.00;;;;;;2276650;61;1092;-86
2023/08/10 05:28:42;53419.00;0.18;93.10;0.00;0.00;0.62;;;;;19.80;1.00;;;;;;2276718;61;1291;-86
2023/08/10 05:31:09;163223.00;0.54;282.59;0.00;0.00;0.62;;;;;20.10;1.00;;;;;;2276666;61;1558;-86
2023/08/10 05:33:36;0.00;0.00;0.62;0.00;0.00;0.62;;;;;19.80;1.00;;;;;;2276700;61;1293;-87
2023/08/10 05:36:03;152911.00;0.51;264.82;23102.00;0.08;40.64;;;;;20.10;1.00;;;;;;2276681;61;909;-87
2023/08/10 05:38:30;174974.00;0.58;302.83;0.00;0.00;0.62;;;;;20.60;1.00;;;;;;2276634;61;1528;-86
2023/08/10 05:40:58;120242.00;0.40;208.50;0.00;0.00;0.62;;;;;21.40;1.00;;;;;;2276664;61;1118;-87
2023/08/10 05:43:25;0.00;0.00;0.62;0.00;0.00;0.62;;;;;22.80;1.00;;;;;;2276581;61;1383;-88
2023/08/10 05:45:52;26164.00;0.09;45.94;0.00;0.00;0.62;;;;;24.70;1.00;;;;;;2276511;61;2016;-87
2023/08/10 05:48:19;0.00;0.00;0.62;0.00;0.00;0.62;;;;;25.70;1.00;;;;;;2276636;61;1013;-87
2023/08/10 05:50:46;0.00;0.00;0.62;0.00;0.00;0.62;;;;;26.50;1.00;;;;;;2276502;61;1577;-86
2023/08/10 05:53:12;8708.00;0.03;15.71;0.00;0.00;0.62;;;;;27.10;1.00;;;;;;2276602;61;1287;-88
2023/08/10 05:55:39;73816.00;0.25;128.35;0.00;0.00;0.62;;;;;27.70;1.00;;;;;;2276473;61;1131;-89
2023/08/10 05:58:07;99908.00;0.33;173.41;0.00;0.00;0.62;;;;;28.20;1.00;;;;;;2276646;61;1102;-89
2023/08/10 06:00:36;45124.00;0.15;78.75;0.00;0.00;0.62;;;;;28.40;1.00;;;;;;2276707;61;1025;-89
2023/08/10 06:03:03;16022.00;0.05;28.38;0.00;0.00;0.62;;;;;28.90;1.00;;;;;;2276578;61;1395;-87
2023/08/10 06:05:31;64975.00;0.22;113.08;0.00;0.00;0.62;;;;;29.10;1.00;;;;;;2276600;61;1994;-88
2023/08/10 06:07:58;18011.00;0.06;31.83;0.00;0.00;0.62;;;;;29.40;1.00;;;;;;2276671;61;920;-88
2023/08/10 06:10:26;0.00;0.00;0.62;0.00;0.00;0.62;;;;;29.80;1.00;;;;;;2276609;61;1088;-87
2023/08/10 06:12:53;79209.00;0.26;137.67;0.00;0.00;0.62;;;;;30.00;1.00;;;;;;2276579;61;1272;-89
2023/08/10 06:15:21;0.00;0.00;0.62;0.00;0.00;0.62;;;;;30.70;1.00;;;;;;2276509;61;1072;-87
2023/08/10 06:17:48;140964.00;0.47;244.23;0.00;0.00;0.62;;;;;31.30;1.00;;;;;;2276521;61;1093;-89
2023/08/10 06:20:21;138992.00;0.46;240.83;0.00;0.00;0.62;;;;;31.60;1.00;;;;;;2276302;61;1268;-88
2023/08/10 06:22:49;0.00;0.00;0.62;0.00;0.00;0.62;;;;;30.10;1.00;;;;;;2276434;61;1488;-87
2023/08/10 06:25:16;0.00;0.00;0.62;0.00;0.00;0.62;;;;;29.00;1.00;;;;;;2276498;61;2002;-88
2023/08/10 06:27:43;169084.00;0.56;292.69;0.00;0.00;0.62;;;;;28.00;1.00;;;;;;2276514;61;1101;-88
2023/08/10 06:30:13;12540.00;0.04;22.35;0.00;0.00;0.62;;;;;26.90;1.00;;;;;;2276459;61;1045;-88
2023/08/10 06:32:41;0.00;0.00;0.62;0.00;0.00;0.62;;;;;26.20;1.00;;;;;;2276388;61;1624;-85
2023/08/10 06:35:10;311558.00;1.04;537.79;75523.00;0.25;131.30;;;;;26.20;1.00;;;;;;2276396;61;1078;-86
2023/08/10 06:37:37;328.00;0.00;1.19;0.00;0.00;0.62;;;;;26.00;1.00;;;;;;2276388;61;2248;-86
2023/08/10 06:40:08;176938.00;0.59;306.22;0.00;0.00;0.62;;;;;25.90;1.00;;;;;;2287654;56;3803;-87
2023/08/10 06:42:35;21552.00;0.07;37.96;0.00;0.00;0.62;;;;;25.70;1.00;;;;;;2276477;61;1365;-87
2023/08/10 06:45:03;0.00;0.00;0.62;0.00;0.00;0.62;;;;;25.00;1.00;;;;;;2276477;61;1915;-88
2023/08/10 06:47:30;0.00;0.00;0.62;0.00;0.00;0.62;;;;;24.50;1.00;;;;;;2276437;61;1083;-88
2023/08/10 06:49:59;96860.00;0.32;168.15;0.00;0.00;0.62;;;;;24.60;1.00;;;;;;2276387;61;1628;-87
2023/08/10 06:52:25;58751.00;0.20;102.32;0.00;0.00;0.62;;;;;24.60;1.00;;;;;;2276329;61;1074;-85
2023/08/10 06:54:53;178613.00;0.60;309.10;0.00;0.00;0.62;;;;;24.50;1.00;;;;;;2276397;61;1177;-86
2023/08/10 06:57:20;150111.00;0.50;260.00;0.00;0.00;0.62;;;;;24.40;1.00;;;;;;2276456;61;1016;-89
2023/08/10 06:59:47;0.00;0.00;0.62;0.00;0.00;0.62;;;;;23.50;1.00;;;;;;2276414;61;923;-88
2023/08/10 07:02:14;180458.00;0.60;312.28;0.00;0.00;0.62;;;;;23.40;1.00;;;;;;2276372;61;1549;-86
2023/08/10 07:04:43;144032.00;0.48;249.52;0.00;0.00;0.62;;;;;23.30;1.00;;;;;;2276392;61;1911;-86
2023/08/10 07:07:12;218258.00;0.73;377.35;85883.00;0.29;149.20;;;;;23.10;1.00;;;;;;2276401;61;1033;-87
2023/08/10 07:09:38;10699.00;0.04;19.16;0.00;0.00;0.62;;;;;23.30;1.00;;;;;;2276443;61;1140;-87
2023/08/10 07:12:06;55615.00;0.19;96.90;0.00;0.00;0.62;;;;;23.40;1.00;;;;;;2276407;61;948;-88
2023/08/10 07:14:33;81303.00;0.27;141.29;0.00;0.00;0.62;;;;;23.80;1.00;;;;;;2276378;61;1305;-87
2023/08/10 07:17:00;0.00;0.00;0.62;0.00;0.00;0.62;;;;;23.80;1.00;;;;;;2276393;61;1094;-87
2023/08/10 07:19:26;38271.00;0.13;66.90;0.00;0.00;0.62;;;;;24.20;1.00;;;;;;2276362;61;1015;-88
2023/08/10 07:21:55;182114.00;0.61;315.13;0.00;0.00;0.62;;;;;23.80;1.00;;;;;;2276355;61;1087;-85
2023/08/10 07:24:23;0.00;0.00;0.62;0.00;0.00;0.62;;;;;23.80;1.00;;;;;;2276235;61;2017;-87
2023/08/10 08:39:31;984279.00;3.28;1704.65;0.00;0.00;0.62;;;;;27.30;1.00;;;;;;2462590;40;3483;31
2023/08/10 08:46:58;1074603.00;3.58;1865.06;0.00;0.00;0.62;;;;;28.20;1.00;;;;;;2503564;40;3558;-92
2023/08/10 11:11:40;1116273.00;3.72;1939.55;0.00;0.00;0.62;;;;;27.10;1.00;;;;;;2513667;55;3588;31
2023/08/10 12:04:12;1481350.00;4.94;2608.08;7706.00;0.03;13.97;;;;;27.70;1.00;;;;;;2294502;40;3485;-89
2023/08/10 12:34:03;1113843.00;3.71;1935.20;0.00;0.00;0.62;;;;;27.60;1.00;;;;;;2297809;39;3622;-89
2023/08/10 12:41:33;673501.00;2.25;1161.32;0.00;0.00;0.62;;;;;27.50;1.00;;;;;;2385648;39;3641;-88
2023/08/10 13:09:01;1095073.00;3.65;1901.61;0.00;0.00;0.62;;;;;28.10;1.00;;;;;;2299048;39;3720;-90
2023/08/10 13:19:10;1522724.00;5.08;2685.95;94943.00;0.32;164.84;;;;;27.90;1.00;;;;;;2331044;39;3588;-88
2023/08/10 13:31:37;1063014.00;3.54;1844.40;66917.00;0.22;116.43;;;;;28.40;1.00;;;;;;2278530;60;1212;-90
2023/08/10 13:34:06;324160.00;1.08;559.45;73314.00;0.24;127.49;;;;;28.80;1.00;;;;;;2274042;60;1296;-91
2023/08/10 13:44:02;1061284.00;3.54;1841.32;59604.00;0.20;103.79;;;;;28.90;1.00;;;;;;2023691;39;3595;-90
2023/08/10 13:49:00;1167004.00;3.89;2030.68;70618.00;0.24;122.83;;;;;29.10;1.00;;;;;;2278031;60;1407;-90
2023/08/10 13:53:58;1631912.00;5.44;2893.88;102581.00;0.34;178.03;;;;;29.30;1.00;;;;;;2275790;60;1425;-89
2023/08/10 13:56:27;920998.00;3.07;1593.03;57863.00;0.19;100.78;;;;;29.00;1.00;;;;;;2272394;61;1864;-90
2023/08/10 13:58:54;561696.00;1.87;968.13;20306.00;0.07;35.80;;;;;28.60;1.00;;;;;;2272637;61;1689;-88
2023/08/10 14:06:19;1449731.00;4.83;2548.88;102570.00;0.34;178.01;;;;;28.80;1.00;;;;;;2278771;61;1888;-89
2023/08/10 14:08:46;510835.00;1.70;880.48;66281.00;0.22;115.33;;;;;29.10;1.00;;;;;;2276591;60;1406;-90
2023/08/10 14:11:13;618427.00;2.06;1066.05;91570.00;0.31;159.02;;;;;28.90;1.00;;;;;;2276645;60;1042;-90
2023/08/10 14:16:15;1085957.00;3.62;1885.33;81920.00;0.27;142.35;;;;;28.80;1.00;;;;;;2270443;61;1305;-88
2023/08/10 14:21:18;1500845.00;5.00;2644.71;62584.00;0.21;108.94;;;;;29.10;1.00;;;;;;2298230;55;3744;-88
2023/08/10 14:28:44;1287699.00;4.29;2249.61;29046.00;0.10;50.93;;;;;29.40;1.00;;;;;;1802450;56;3609;-91
2023/08/10 14:31:12;359887.00;1.20;620.85;0.00;0.00;0.62;;;;;29.50;1.00;;;;;;2272337;61;880;-88
2023/08/10 14:43:36;1482492.00;4.94;2610.22;34626.00;0.12;60.59;;;;;28.90;1.00;;;;;;2366292;40;3635;-89
2023/08/10 14:48:39;956444.00;3.19;1655.48;0.00;0.00;0.62;;;;;29.80;1.00;;;;;;2278184;60;1434;-91
2023/08/10 14:53:37;604715.00;2.02;1042.36;0.00;0.00;0.62;;;;;29.90;1.00;;;;;;2275948;60;1871;-88
2023/08/10 15:01:02;604954.00;2.02;1042.77;0.00;0.00;0.62;;;;;29.70;1.00;;;;;;1405112;56;3602;-88
2023/08/10 15:03:29;171001.00;0.57;295.99;0.00;0.00;0.62;;;;;29.70;1.00;;;;;;2276359;61;1681;-90
2023/08/10 15:11:00;420545.00;1.40;725.13;0.00;0.00;0.62;;;;;29.70;1.00;;;;;;2313468;39;3508;-89
2023/08/10 15:13:27;126660.00;0.42;219.57;0.00;0.00;0.62;;;;;29.70;1.00;;;;;;2276376;61;1307;-90
2023/08/10 15:20:53;471622.00;1.57;812.98;0.00;0.00;0.62;;;;;30.10;1.00;;;;;;2273668;61;1436;-89
2023/08/10 15:23:22;317042.00;1.06;547.21;0.00;0.00;0.62;;;;;29.90;1.00;;;;;;2267289;61;1356;-90
2023/08/10 15:25:49;118527.00;0.40;205.54;0.00;0.00;0.62;;;;;30.00;1.00;;;;;;2268186;61;1915;-90
2023/08/10 15:28:17;173724.00;0.58;300.68;0.00;0.00;0.62;;;;;30.10;1.00;;;;;;2284869;55;3773;-88
2023/08/10 15:30:44;299408.00;1.00;516.90;0.00;0.00;0.62;;;;;29.20;1.00;;;;;;2315518;40;3599;-89
2023/08/10 15:33:11;111507.00;0.37;193.43;0.00;0.00;0.62;;;;;28.90;1.00;;;;;;2276349;61;1410;-87
2023/08/10 15:35:41;160187.00;0.53;277.36;0.00;0.00;0.62;;;;;29.00;1.00;;;;;;2276329;61;1695;-89
2023/08/10 15:48:08;212363.00;0.71;367.20;0.00;0.00;0.62;;;;;28.80;1.00;;;;;;2278288;60;1396;-90
2023/08/10 15:50:34;176201.00;0.59;304.95;0.00;0.00;0.62;;;;;28.80;1.00;;;;;;2299988;55;3780;-88
2023/08/10 16:00:29;835815.00;2.79;1443.66;0.00;0.00;0.62;;;;;28.10;1.00;;;;;;2316428;40;3555;-88
2023/08/10 16:02:56;345258.00;1.15;595.71;58973.00;0.20;102.70;;;;;28.30;1.00;;;;;;2353603;56;3759;-89
2023/08/10 16:05:27;132052.00;0.44;228.87;0.00;0.00;0.62;;;;;28.20;1.00;;;;;;2275955;61;1999;-89
2023/08/10 16:10:22;699926.00;2.33;1207.11;0.00;0.00;0.62;;;;;27.70;1.00;;;;;;2278922;61;1297;-89
2023/08/10 16:12:49;0.00;0.00;0.62;0.00;0.00;0.62;;;;;27.60;1.00;;;;;;2275725;61;1358;-88
2023/08/10 16:15:16;326211.00;1.09;562.97;0.00;0.00;0.62;;;;;27.90;1.00;;;;;;2272041;61;1685;-89
2023/08/10 16:20:14;415573.00;1.39;716.58;0.00;0.00;0.62;;;;;28.20;1.00;;;;;;2274047;61;1309;-89
2023/08/10 16:22:43;96425.00;0.32;167.40;0.00;0.00;0.62;;;;;28.00;1.00;;;;;;2281500;55;3732;-88
2023/08/10 16:25:10;118394.00;0.39;205.31;0.00;0.00;0.62;;;;;28.30;1.00;;;;;;2276133;61;985;-88
2023/08/10 16:27:38;228785.00;0.76;395.46;0.00;0.00;0.62;;;;;28.70;1.00;;;;;;2296575;39;3501;-87
2023/08/10 16:30:07;103386.00;0.34;179.42;0.00;0.00;0.62;;;;;28.70;1.00;;;;;;2276113;61;981;-90
2023/08/10 16:32:34;195439.00;0.65;338.07;0.00;0.00;0.62;;;;;28.30;1.00;;;;;;2278043;55;3753;-91
2023/08/10 16:35:01;521753.00;1.74;899.28;0.00;0.00;0.62;;;;;28.20;1.00;;;;;;2271786;61;1006;-90
2023/08/10 16:37:28;128206.00;0.43;222.24;0.00;0.00;0.62;;;;;28.10;1.00;;;;;;2272142;61;958;-88
2023/08/10 16:39:59;38229.00;0.13;66.82;0.00;0.00;0.62;;;;;28.00;1.00;;;;;;2272039;61;1738;-87
2023/08/10 16:42:26;411658.00;1.37;709.85;102250.00;0.34;177.46;;;;;28.00;1.00;;;;;;2275908;55;3773;-88
2023/08/10 16:44:53;134056.00;0.45;232.32;0.00;0.00;0.62;;;;;27.80;1.00;;;;;;2276079;61;1378;-89
2023/08/10 16:47:20;85097.00;0.28;147.84;0.00;0.00;0.62;;;;;27.60;1.00;;;;;;2283933;39;3479;-90
2023/08/10 16:49:47;0.00;0.00;0.62;0.00;0.00;0.62;;;;;27.50;1.00;;;;;;2278336;39;3660;-87
2023/08/10 16:54:46;1004742.00;3.35;1740.87;0.00;0.00;0.62;;;;;27.20;1.00;;;;;;2289455;39;3583;-87
2023/08/10 16:57:16;98172.00;0.33;170.42;0.00;0.00;0.62;;;;;27.20;1.00;;;;;;2275970;61;1062;-86
2023/08/10 17:07:16;500159.00;1.67;862.10;0.00;0.00;0.62;;;;;27.50;1.00;;;;;;2277970;60;1970;-88
2023/08/10 17:09:43;201290.00;0.67;348.14;0.00;0.00;0.62;;;;;27.50;1.00;;;;;;2306846;56;3831;-89
2023/08/10 17:12:10;217538.00;0.73;376.11;0.00;0.00;0.62;;;;;27.60;1.00;;;;;;2276095;61;1677;-89
2023/08/10 17:14:39;271111.00;0.90;468.25;0.00;0.00;0.62;;;;;27.90;1.00;;;;;;2275946;61;1357;-88
2023/08/10 17:17:06;85258.00;0.28;148.12;0.00;0.00;0.62;;;;;28.10;1.00;;;;;;2276112;61;1086;-87
2023/08/10 17:19:33;208912.00;0.70;361.26;0.00;0.00;0.62;;;;;28.00;1.00;;;;;;2278037;55;3767;-88
2023/08/10 17:27:02;232939.00;0.78;402.60;0.00;0.00;0.62;;;;;26.90;1.00;;;;;;2274101;61;1971;-88
2023/08/10 17:29:29;0.00;0.00;0.62;0.00;0.00;0.62;;;;;27.10;1.00;;;;;;2272494;61;997;-89
2023/08/10 17:31:57;6577.00;0.02;12.02;0.00;0.00;0.62;;;;;27.00;1.00;;;;;;2272344;61;1661;-89
2023/08/10 17:34:24;143941.00;0.48;249.36;0.00;0.00;0.62;;;;;26.90;1.00;;;;;;2269127;61;1452;-88
2023/08/10 17:39:19;347783.00;1.16;600.05;0.00;0.00;0.62;;;;;27.20;1.00;;;;;;2278645;60;1480;-89
2023/08/10 17:41:48;233639.00;0.78;403.81;0.00;0.00;0.62;;;;;27.20;1.00;;;;;;2276614;60;910;-87